Time;durP1;ratioP1;P1;durP2;ratioP2;P2;SDS_P1;SDS_P2;PMS_P1;PMS_P2;Temp;Humidity;BMP_temperature;BMP_pressure;BME280_temperature;BME280_humidity;BME280_pressure;Samples;Min_cycle;Max_cycle;Signal;HPM_P1;HPM_P2
2022/09/09 00:01:54;;;;;;;8.78;6.90;;;;;;;15.10;61.27;101268.69;1762068;81;21499;-88
2022/09/09 00:04:30;;;;;;;7.75;5.97;;;;;;;15.01;61.55;101273.28;1740949;81;20919;-86
2022/09/09 00:07:18;;;;;;;10.10;6.47;;;;;;;14.88;62.01;101266.19;1763954;81;20884;-86
2022/09/09 00:10:08;;;;;;;14.18;7.25;;;;;;;14.81;62.71;101270.67;1761203;81;21116;-88
2022/09/09 00:12:49;;;;;;;8.63;6.47;;;;;;;14.73;62.53;101272.98;1735517;81;20970;-89
2022/09/09 00:15:20;;;;;;;14.28;5.83;;;;;;;14.67;63.42;101278.17;1737264;81;20919;-89
2022/09/09 00:18:02;;;;;;;8.65;6.87;;;;;;;14.53;64.34;101269.83;1751433;81;20859;-89
2022/09/09 00:20:59;;;;;;;10.60;6.58;;;;;;;14.53;64.34;101269.83;1749301;81;21013;-89
2022/09/09 00:23:30;;;;;;;9.23;6.72;;;;;;;14.47;64.72;101271.55;1745276;81;21135;-88
2022/09/09 00:26:14;;;;;;;9.45;6.22;;;;;;;14.33;65.44;101271.63;1715213;81;20891;-86
2022/09/09 00:28:54;;;;;;;11.93;5.70;;;;;;;14.33;65.44;101271.63;1761750;78;20983;-87
2022/09/09 00:31:25;;;;;;;10.25;6.67;;;;;;;14.25;65.86;101273.42;1756294;81;21014;-87
2022/09/09 00:33:52;;;;;;;10.45;6.85;;;;;;;14.18;66.26;101276.09;1734819;81;21005;-89
2022/09/09 00:36:22;;;;;;;17.75;8.63;;;;;;;14.12;66.58;101290.53;1761131;81;21038;-86
2022/09/09 00:38:52;;;;;;;12.37;7.30;;;;;;;14.04;66.50;101280.94;1722235;81;20991;-88
2022/09/09 00:41:37;;;;;;;11.95;6.87;;;;;;;13.99;66.08;101286.52;1752872;81;21897;-88
2022/09/09 00:44:13;;;;;;;;;;;;;;;13.95;66.92;101283.69;1745230;81;21060;-88
2022/09/09 00:47:30;;;;;;;12.68;7.10;;;;;;;13.92;67.11;101287.85;1746711;81;20106;-88
2022/09/09 00:50:24;;;;;;;10.05;6.65;;;;;;;13.88;66.96;101287.67;1760108;81;21379;-88
2022/09/09 00:53:12;;;;;;;10.48;6.22;;;;;;;13.83;67.40;101289.75;1762804;81;20864;-90
2022/09/09 00:56:01;;;;;;;9.98;6.15;;;;;;;13.78;67.74;101292.66;1745572;78;21073;-88
2022/09/09 00:58:28;;;;;;;10.90;6.90;;;;;;;13.75;67.92;101297.29;1709895;80;20947;-89
2022/09/09 01:01:08;;;;;;;8.25;6.65;;;;;;;13.72;68.07;101290.87;1757914;78;20778;-88
2022/09/09 01:03:51;;;;;;;10.43;6.40;;;;;;;13.70;68.21;101292.78;1747435;78;21653;-89
2022/09/09 01:06:34;;;;;;;9.03;6.17;;;;;;;13.67;68.31;101293.34;1763814;78;20994;-88
2022/09/09 01:09:33;;;;;;;11.43;6.67;;;;;;;13.65;68.54;101297.87;1761790;79;20935;-87
2022/09/09 01:12:15;;;;;;;12.65;7.30;;;;;;;13.62;68.79;101295.41;1750533;78;20951;-88
2022/09/09 01:14:47;;;;;;;10.35;6.42;;;;;;;13.58;68.95;101306.23;1742117;78;20915;-88
2022/09/09 01:17:29;;;;;;;10.63;6.20;;;;;;;13.55;68.76;101303.31;1759651;80;21221;-89
2022/09/09 01:20:06;;;;;;;9.48;6.92;;;;;;;13.51;69.03;101308.39;1763253;78;21037;-87
2022/09/09 01:23:06;;;;;;;10.55;6.72;;;;;;;13.48;68.97;101308.12;1741418;79;21018;-87
2022/09/09 01:26:11;;;;;;;10.65;6.03;;;;;;;13.45;68.90;101313.59;1764455;78;21096;-87
2022/09/09 01:28:38;;;;;;;10.32;6.87;;;;;;;13.44;68.64;101311.03;1700200;81;21309;-89
2022/09/09 01:31:07;;;;;;;12.13;6.20;;;;;;;13.41;68.50;101306.80;1681250;81;21084;-87
2022/09/09 01:33:38;;;;;;;9.93;6.22;;;;;;;13.39;68.48;101310.00;1689015;81;21130;-87
2022/09/09 01:36:17;;;;;;;10.72;6.22;;;;;;;13.38;68.61;101313.56;1681913;82;21345;-88
2022/09/09 01:38:45;;;;;;;12.65;6.97;;;;;;;13.37;68.35;101320.26;1688950;81;20918;-89
2022/09/09 01:41:11;;;;;;;15.93;6.97;;;;;;;13.36;67.97;101327.77;1678955;84;21025;-88
2022/09/09 01:43:40;;;;;;;11.40;6.67;;;;;;;13.34;67.41;101318.66;1679917;84;21360;-89
2022/09/09 01:46:06;;;;;;;13.53;6.30;;;;;;;13.34;66.87;101319.98;1679411;84;21193;-88
2022/09/09 01:48:35;;;;;;;12.47;6.67;;;;;;;13.33;66.73;101316.11;1672511;84;20971;-88
2022/09/09 01:51:04;;;;;;;15.48;6.25;;;;;;;13.34;66.58;101312.52;1685388;84;21013;-87
2022/09/09 01:53:31;;;;;;;8.75;6.05;;;;;;;13.35;66.41;101312.91;1679696;84;21014;-87
2022/09/09 01:56:16;;;;;;;9.98;5.78;;;;;;;13.35;66.36;101307.65;1685098;84;21822;-89
2022/09/09 01:59:04;;;;;;;15.98;6.90;;;;;;;13.35;66.50;101308.97;1691768;84;20984;-89
2022/09/09 02:01:51;;;;;;;12.78;6.33;;;;;;;13.33;66.44;101309.05;1692110;84;21038;-89
2022/09/09 02:04:41;;;;;;;8.30;5.72;;;;;;;13.33;66.38;101308.20;1718035;81;20981;-89
2022/09/09 02:07:22;;;;;;;14.13;6.95;;;;;;;13.29;66.44;101308.84;1750050;81;20899;-89
2022/09/09 02:09:54;;;;;;;10.65;6.83;;;;;;;13.24;66.63;101309.09;1706698;81;21363;-89
2022/09/09 02:12:21;;;;;;;11.35;7.67;;;;;;;13.22;66.92;101310.13;1755938;81;21509;-89
2022/09/09 02:14:56;;;;;;;12.73;6.90;;;;;;;13.18;67.13;101312.09;1744363;81;20898;-89
2022/09/09 02:17:31;;;;;;;12.35;6.78;;;;;;;13.13;67.40;101314.16;1755254;81;20955;-88
2022/09/09 02:20:09;;;;;;;8.65;6.17;;;;;;;13.08;67.70;101317.55;1751807;81;20934;-86
2022/09/09 02:22:39;;;;;;;9.75;6.22;;;;;;;13.04;67.96;101319.98;1720396;81;21761;-87
2022/09/09 02:25:08;;;;;;;8.58;7.08;;;;;;;12.97;68.22;101316.02;1684541;82;20907;-89
2022/09/09 02:27:36;;;;;;;12.18;7.03;;;;;;;12.90;68.50;101318.16;1750663;81;20982;-89
2022/09/09 02:30:04;;;;;;;9.85;6.65;;;;;;;12.83;68.98;101318.16;1757195;81;20911;-89
2022/09/09 02:32:33;;;;;;;9.13;6.65;;;;;;;12.75;69.40;101317.27;1752665;81;20888;-87
2022/09/09 02:35:10;;;;;;;10.58;7.45;;;;;;;12.67;69.62;101319.48;1748041;81;21121;-89
2022/09/09 02:37:39;;;;;;;15.13;8.53;;;;;;;12.60;70.05;101316.83;1762676;81;21063;-89
2022/09/09 02:40:08;;;;;;;15.23;8.90;;;;;;;12.56;70.47;101320.12;1762660;81;20995;-88
2022/09/09 02:42:43;;;;;;;14.03;8.35;;;;;;;12.50;70.79;101316.99;1757106;81;20947;-87
2022/09/09 02:45:15;;;;;;;13.72;8.63;;;;;;;12.43;70.91;101321.75;1750627;81;20950;-89
2022/09/09 02:48:00;;;;;;;12.70;7.87;;;;;;;12.39;70.98;101326.80;1744918;81;21157;-88
2022/09/09 02:50:33;;;;;;;16.60;8.65;;;;;;;12.34;71.12;101326.19;1743064;81;20835;-89
2022/09/09 02:53:21;;;;;;;11.80;7.63;;;;;;;12.27;71.40;101333.58;1751270;81;21543;-89
2022/09/09 02:55:54;;;;;;;11.43;8.68;;;;;;;12.22;71.62;101333.83;1754089;81;21049;-90
2022/09/09 02:58:20;;;;;;;16.82;7.03;;;;;;;12.17;71.66;101335.03;1762198;81;20955;-91
2022/09/09 03:00:50;;;;;;;15.05;8.03;;;;;;;12.09;71.83;101334.59;1753962;81;21161;-88
2022/09/09 03:03:20;;;;;;;17.85;9.73;;;;;;;12.01;72.21;101331.93;1744880;78;20816;-88
2022/09/09 03:05:48;;;;;;;11.53;8.08;;;;;;;11.98;72.44;101341.75;1732625;80;20935;-89
2022/09/09 03:08:14;;;;;;;12.75;9.38;;;;;;;11.93;72.65;101345.95;1748123;80;21129;-88
2022/09/09 03:10:43;;;;;;;15.63;7.47;;;;;;;11.88;72.69;101347.14;1713886;82;21002;-89
2022/09/09 03:13:12;;;;;;;17.52;7.50;;;;;;;11.81;72.80;101352.69;1735674;81;21229;-89
2022/09/09 03:15:39;;;;;;;10.93;7.92;;;;;;;11.78;72.90;101355.94;1740946;81;20899;-90
2022/09/09 03:18:06;;;;;;;14.80;8.25;;;;;;;11.74;72.97;101351.33;1753726;81;20923;-90
2022/09/09 03:20:34;;;;;;;12.63;7.90;;;;;;;11.71;73.05;101350.62;1756744;81;20963;-90
2022/09/09 03:23:02;;;;;;;14.73;8.23;;;;;;;11.68;73.07;101356.89;1763200;81;21440;-89
2022/09/09 03:25:29;;;;;;;12.25;6.90;;;;;;;11.64;73.12;101361.92;1719648;81;21802;-90
2022/09/09 03:27:56;;;;;;;10.15;7.50;;;;;;;11.60;73.27;101365.20;1721548;81;21125;-91
2022/09/09 03:30:27;;;;;;;13.88;7.78;;;;;;;11.57;73.37;101357.92;1762613;81;21014;-90
2022/09/09 03:32:59;;;;;;;11.55;7.60;;;;;;;11.54;73.42;101366.82;1740640;81;21477;-91
2022/09/09 03:35:25;;;;;;;15.75;7.80;;;;;;;11.50;73.40;101368.38;1712550;81;20871;-90
2022/09/09 03:37:52;;;;;;;17.07;8.10;;;;;;;11.47;73.63;101363.27;1743748;81;21878;-90
2022/09/09 03:40:19;;;;;;;13.93;8.13;;;;;;;11.44;73.69;101364.27;1756007;81;20859;-91
2022/09/09 03:42:47;;;;;;;13.62;9.30;;;;;;;11.44;73.70;101374.78;1761276;81;20951;-91
2022/09/09 03:45:14;;;;;;;14.25;8.23;;;;;;;11.40;73.69;101379.80;1741436;81;20982;-93
2022/09/09 03:47:41;;;;;;;13.15;9.08;;;;;;;11.36;73.79;101376.94;1728648;81;21117;-91
2022/09/09 03:50:10;;;;;;;17.25;9.80;;;;;;;11.32;73.98;101378.05;1756628;81;22079;-92
2022/09/09 03:52:40;;;;;;;13.15;10.30;;;;;;;11.28;74.19;101376.50;1741626;81;21522;-91
2022/09/09 03:55:09;;;;;;;18.17;11.20;;;;;;;11.26;74.44;101384.45;1758748;81;20915;-91
2022/09/09 03:57:37;;;;;;;18.92;10.53;;;;;;;11.25;74.63;101381.89;1702626;83;20924;-91
2022/09/09 04:00:08;;;;;;;15.30;10.28;;;;;;;11.25;74.78;101382.77;1673659;84;20979;-92
2022/09/09 04:02:45;;;;;;;18.25;10.63;;;;;;;11.24;74.84;101381.05;1692604;84;21168;-91
2022/09/09 04:05:14;;;;;;;12.58;9.33;;;;;;;11.27;74.93;101383.98;1681873;84;20985;-89
2022/09/09 04:07:42;;;;;;;17.73;10.30;;;;;;;11.29;74.95;101375.56;1689940;84;21007;-91
2022/09/09 04:10:09;;;;;;;14.63;9.68;;;;;;;11.32;74.96;101378.89;1684005;84;20923;-91
2022/09/09 04:12:38;;;;;;;22.32;9.80;;;;;;;11.33;74.97;101381.89;1700368;83;21035;-89
2022/09/09 04:15:06;;;;;;;16.00;10.45;;;;;;;11.35;74.87;101383.98;1710892;82;21169;-86
2022/09/09 04:17:33;;;;;;;25.10;10.58;;;;;;;11.38;74.85;101390.84;1713880;83;20993;-87
2022/09/09 04:20:01;;;;;;;21.50;11.28;;;;;;;11.40;74.71;101391.18;1726044;82;21031;-88
2022/09/09 04:22:28;;;;;;;15.40;12.28;;;;;;;11.43;74.70;101398.05;1730173;82;20946;-88
2022/09/09 04:24:55;;;;;;;15.85;10.35;;;;;;;11.44;74.81;101399.73;1707518;82;21349;-91
2022/09/09 04:27:23;;;;;;;14.85;10.68;;;;;;;11.48;74.88;101410.47;1715224;83;21096;-90
2022/09/09 04:29:51;;;;;;;21.82;11.33;;;;;;;11.52;75.02;101408.08;1725315;82;20887;-89
2022/09/09 04:32:18;;;;;;;26.62;12.15;;;;;;;11.57;75.17;101406.05;1706939;82;20920;-90
2022/09/09 04:34:44;;;;;;;20.92;14.38;;;;;;;11.63;75.22;101406.22;1710100;82;20909;-90
2022/09/09 04:37:11;;;;;;;21.15;12.00;;;;;;;11.71;75.29;101409.75;1705070;83;21041;-86
2022/09/09 04:39:38;;;;;;;19.82;12.60;;;;;;;11.78;75.28;101409.36;1716640;82;21259;-86
2022/09/09 04:42:06;;;;;;;19.02;13.10;;;;;;;11.87;75.12;101412.41;1726637;83;20998;-85
2022/09/09 04:44:33;;;;;;;16.55;12.10;;;;;;;11.94;75.04;101405.48;1690298;84;21013;-90
2022/09/09 04:47:00;;;;;;;19.23;12.37;;;;;;;12.05;75.09;101406.67;1675025;84;21607;-89
2022/09/09 04:49:26;;;;;;;18.17;12.00;;;;;;;12.18;74.97;101412.53;1681914;84;20972;-89
2022/09/09 04:51:55;;;;;;;20.43;13.45;;;;;;;12.39;74.88;101413.13;1685764;84;21915;-87
2022/09/09 04:54:22;;;;;;;18.45;11.65;;;;;;;12.66;74.51;101415.17;1690763;84;20991;-90
2022/09/09 04:56:52;;;;;;;25.80;11.88;;;;;;;13.00;74.21;101411.45;1714703;83;20859;-89
2022/09/09 04:59:19;;;;;;;22.82;11.97;;;;;;;13.57;73.82;101417.88;1721911;82;20894;-90
2022/09/09 05:01:49;;;;;;;20.55;12.03;;;;;;;14.31;72.45;101407.59;1726038;82;20852;-89
2022/09/09 05:04:16;;;;;;;21.57;11.43;;;;;;;15.06;70.50;101405.89;1724396;83;21787;-88
2022/09/09 05:06:43;;;;;;;20.75;10.93;;;;;;;15.82;68.30;101410.92;1723172;82;20943;-87
2022/09/09 05:09:12;;;;;;;21.15;10.85;;;;;;;16.56;65.93;101403.42;1711639;82;20955;-88
2022/09/09 05:11:38;;;;;;;13.90;9.00;;;;;;;17.32;63.95;101403.14;1728143;83;20951;-90
2022/09/09 05:14:08;;;;;;;15.60;8.85;;;;;;;18.02;61.65;101409.66;1718385;82;21406;-89
2022/09/09 05:16:34;;;;;;;16.60;9.10;;;;;;;18.73;59.52;101404.48;1720925;83;21087;-86
2022/09/09 05:19:03;;;;;;;11.20;8.60;;;;;;;19.39;57.30;101396.35;1716505;82;20946;-88
2022/09/09 05:21:31;;;;;;;14.28;9.85;;;;;;;19.97;55.63;101395.34;1720293;82;20971;-89
2022/09/09 05:23:58;;;;;;;12.03;8.35;;;;;;;20.55;53.96;101400.48;1722626;82;21133;-90
2022/09/09 05:26:25;;;;;;;14.23;8.40;;;;;;;21.10;52.02;101404.32;1730358;83;21089;-89
2022/09/09 05:28:53;;;;;;;13.60;8.83;;;;;;;21.68;50.15;101406.56;1723605;82;21791;-90
2022/09/09 05:31:20;;;;;;;12.28;8.65;;;;;;;22.25;48.66;101406.48;1705965;83;20915;-89
2022/09/09 05:33:49;;;;;;;14.65;9.03;;;;;;;22.78;47.42;101400.86;1712290;83;21476;-89
2022/09/09 05:36:20;;;;;;;9.55;6.87;;;;;;;23.15;46.10;101401.55;1680393;81;20920;-90
2022/09/09 05:38:49;;;;;;;13.05;8.25;;;;;;;23.46;45.00;101402.45;1688419;81;21477;-92
2022/09/09 05:41:16;;;;;;;15.55;7.95;;;;;;;23.84;43.97;101407.05;1681948;84;21257;-89
2022/09/09 05:43:44;;;;;;;13.10;6.97;;;;;;;24.22;42.82;101404.03;1700345;83;21113;-89
2022/09/09 05:46:17;;;;;;;10.23;7.12;;;;;;;24.50;42.09;101405.97;1721050;82;21046;-89
2022/09/09 05:48:49;;;;;;;10.08;7.17;;;;;;;24.76;41.25;101408.53;1726173;82;21565;-89
2022/09/09 05:51:23;;;;;;;12.77;7.43;;;;;;;24.91;40.46;101404.70;1728261;83;20916;-89
2022/09/09 05:53:58;;;;;;;;;;;;;;;25.02;40.16;101411.91;1721043;82;21597;-89
2022/09/09 05:56:27;;;;;;;10.82;7.28;;;;;;;25.30;39.82;101408.92;1708370;82;20417;-88
2022/09/09 05:58:56;;;;;;;9.88;6.87;;;;;;;25.44;38.94;101408.22;1718969;82;20904;-89
2022/09/09 06:01:30;;;;;;;10.03;7.35;;;;;;;25.64;38.67;101408.68;1725320;83;20994;-88
2022/09/09 06:03:58;;;;;;;11.03;7.05;;;;;;;25.92;38.17;101416.34;1724044;83;20911;-88
2022/09/09 06:06:39;;;;;;;9.03;7.35;;;;;;;26.11;37.19;101415.61;1718356;83;21232;-91
2022/09/09 06:09:10;;;;;;;19.17;7.28;;;;;;;26.23;36.79;101415.06;1722266;83;21180;-91
2022/09/09 06:11:38;;;;;;;9.33;6.75;;;;;;;26.29;36.55;101419.39;1721972;82;20963;-90
2022/09/09 06:14:05;;;;;;;9.23;7.10;;;;;;;26.44;36.46;101425.70;1710189;81;21031;-91
2022/09/09 06:16:35;;;;;;;10.60;6.92;;;;;;;26.73;35.96;101430.94;1729276;83;20951;-92
2022/09/09 06:19:06;;;;;;;7.00;6.30;;;;;;;26.97;35.03;101424.52;1722858;83;21175;-91
2022/09/09 06:21:37;;;;;;;10.55;6.70;;;;;;;27.01;34.20;101424.48;1714360;82;21498;-92
2022/09/09 06:24:10;;;;;;;9.88;6.42;;;;;;;27.03;34.08;101433.22;1722848;83;20919;-94
2022/09/09 06:26:40;;;;;;;8.85;5.97;;;;;;;27.25;33.75;101442.33;1725300;82;20896;-89
2022/09/09 06:29:10;;;;;;;7.20;6.33;;;;;;;27.40;33.33;101441.86;1697242;83;20900;-93
2022/09/09 06:31:37;;;;;;;13.10;6.87;;;;;;;27.61;33.20;101434.91;1726350;82;21255;-91
2022/09/09 06:34:07;;;;;;;10.55;6.45;;;;;;;27.83;32.87;101433.98;1710449;83;20998;-91
2022/09/09 06:36:38;;;;;;;10.88;6.65;;;;;;;28.03;32.57;101434.30;1713535;80;21123;-91
2022/09/09 06:39:10;;;;;;;13.98;6.60;;;;;;;28.11;31.87;101437.42;1655987;83;21540;-90
2022/09/09 06:41:38;;;;;;;11.95;7.00;;;;;;;28.09;31.66;101446.20;1667071;83;20948;-90
2022/09/09 06:44:06;;;;;;;8.55;5.47;;;;;;;28.13;31.66;101446.16;1708648;82;21202;-90
2022/09/09 06:46:36;;;;;;;6.75;5.78;;;;;;;28.12;31.41;101441.77;1680686;83;21099;-91
2022/09/09 06:49:03;;;;;;;8.20;5.45;;;;;;;28.13;31.41;101443.46;1685523;83;21060;-90
2022/09/09 06:51:33;;;;;;;7.55;6.05;;;;;;;28.25;31.54;101442.45;1686205;83;21020;-93
2022/09/09 06:54:02;;;;;;;9.98;6.12;;;;;;;28.49;31.19;101455.65;1686279;83;20894;-90
2022/09/09 06:56:32;;;;;;;9.38;6.12;;;;;;;28.52;30.96;101455.78;1687212;83;21260;-91
2022/09/09 06:59:04;;;;;;;12.03;6.10;;;;;;;28.46;30.79;101461.41;1685297;83;20886;-92
2022/09/09 07:01:34;;;;;;;8.60;5.25;;;;;;;28.50;30.70;101456.48;1685201;83;21032;-92
2022/09/09 07:04:10;;;;;;;8.53;5.30;;;;;;;28.63;30.88;101453.09;1648914;83;21679;-91
2022/09/09 07:06:45;;;;;;;6.67;5.85;;;;;;;28.78;30.51;101455.77;1623692;86;21024;-91
2022/09/09 07:09:16;;;;;;;6.85;5.62;;;;;;;29.03;30.42;101450.80;1636836;85;21298;-91
2022/09/09 07:11:47;;;;;;;9.53;6.40;;;;;;;29.27;30.16;101451.77;1678140;84;21097;-90
2022/09/09 07:14:15;;;;;;;12.10;5.75;;;;;;;29.48;29.68;101453.61;1713372;82;21055;-90
2022/09/09 07:16:44;;;;;;;6.87;5.80;;;;;;;29.64;29.52;101457.05;1691023;83;21027;-90
2022/09/09 07:19:12;;;;;;;7.40;4.62;;;;;;;29.92;29.63;101455.15;1695862;83;20991;-89
2022/09/09 07:21:40;;;;;;;8.13;5.10;;;;;;;30.21;29.20;101461.33;1696170;83;21883;-90
2022/09/09 07:24:09;;;;;;;11.68;5.15;;;;;;;30.47;28.53;101459.28;1689467;83;20968;-90
2022/09/09 07:26:38;;;;;;;10.45;5.55;;;;;;;30.68;28.35;101454.25;1701232;83;20903;-91
2022/09/09 07:29:07;;;;;;;6.40;5.05;;;;;;;30.88;28.14;101457.03;1708746;82;21465;-90
2022/09/09 07:31:37;;;;;;;8.18;5.40;;;;;;;31.07;28.17;101458.59;1716344;82;21568;-90
2022/09/09 07:34:06;;;;;;;7.08;5.80;;;;;;;31.17;27.83;101450.87;1684860;83;21193;-91
2022/09/09 07:36:36;;;;;;;12.15;5.40;;;;;;;31.19;27.62;101452.86;1704106;82;21275;-91
2022/09/09 07:39:06;;;;;;;12.07;5.87;;;;;;;31.31;27.50;101448.48;1673472;83;20995;-90
2022/09/09 07:41:44;;;;;;;10.50;5.80;;;;;;;31.52;27.07;101450.68;1701809;82;21488;-90
2022/09/09 07:44:24;;;;;;;9.65;5.90;;;;;;;31.65;27.01;101452.55;1683997;83;21086;-90
2022/09/09 07:46:53;;;;;;;10.25;6.20;;;;;;;31.76;26.68;101455.96;1692637;82;21938;-92
2022/09/09 07:49:22;;;;;;;9.38;5.17;;;;;;;31.91;26.52;101454.37;1702641;83;20936;-93
2022/09/09 07:51:49;;;;;;;8.18;4.87;;;;;;;31.98;26.48;101449.25;1705630;83;21070;-89
2022/09/09 07:54:23;;;;;;;5.90;4.22;;;;;;;31.85;26.18;101449.26;1713945;83;21022;-90
2022/09/09 07:56:51;;;;;;;8.30;4.87;;;;;;;31.72;26.21;101450.12;1726853;81;21082;-91
2022/09/09 07:59:18;;;;;;;8.15;4.55;;;;;;;31.54;26.18;101447.23;1739004;81;21248;-90
2022/09/09 08:01:53;;;;;;;8.83;4.00;;;;;;;31.26;26.20;101441.52;1718455;82;20995;-89
2022/09/09 08:04:20;;;;;;;5.78;4.35;;;;;;;31.28;26.62;101439.93;1736725;82;21082;-89
2022/09/09 08:06:52;;;;;;;4.17;3.85;;;;;;;31.54;25.91;101444.00;1700376;81;20987;-89
2022/09/09 08:09:21;;;;;;;5.62;3.62;;;;;;;31.70;25.83;101442.71;1740154;80;21006;-88
2022/09/09 08:11:47;;;;;;;6.47;4.37;;;;;;;31.82;25.67;101433.42;1726430;81;21932;-88
2022/09/09 08:14:14;;;;;;;6.58;4.28;;;;;;;31.95;25.59;101436.59;1730607;81;20999;-87
2022/09/09 08:16:44;;;;;;;5.12;4.00;;;;;;;31.85;25.65;101440.30;1735956;81;20905;-88
2022/09/09 08:19:11;;;;;;;5.42;4.45;;;;;;;31.85;25.52;101434.86;1738526;81;20964;-88
2022/09/09 08:21:40;;;;;;;7.28;4.03;;;;;;;32.06;25.53;101430.55;1738047;81;20959;-89
2022/09/09 08:24:14;;;;;;;7.90;4.50;;;;;;;32.12;25.20;101433.73;1705925;81;22180;-89
2022/09/09 08:26:45;;;;;;;6.35;5.12;;;;;;;32.11;25.24;101424.48;1717768;81;20857;-91
2022/09/09 08:29:13;;;;;;;7.10;3.65;;;;;;;32.00;24.96;101420.55;1738978;82;21125;-89
2022/09/09 08:31:47;;;;;;;6.83;3.70;;;;;;;31.93;25.27;101420.55;1685339;81;20996;-91
2022/09/09 08:34:14;;;;;;;6.08;4.00;;;;;;;31.93;25.36;101421.08;1729042;80;21038;-90
2022/09/09 08:36:44;;;;;;;5.30;3.80;;;;;;;31.90;25.21;101425.02;1735468;81;21233;-88
2022/09/09 08:39:15;;;;;;;6.67;4.17;;;;;;;31.65;25.46;101424.07;1733070;81;20935;-90
2022/09/09 08:42:34;;;;;;;8.60;3.95;;;;;;;31.62;25.89;101421.77;1746126;80;21541;-89
2022/09/09 08:45:35;;;;;;;6.35;3.30;;;;;;;31.57;25.78;101419.19;1746222;81;20996;-90
2022/09/09 08:48:26;;;;;;;5.05;3.77;;;;;;;31.55;25.93;101421.28;1730062;81;21543;-89
2022/09/09 08:51:01;;;;;;;7.58;4.00;;;;;;;31.65;25.48;101417.29;1657234;84;21150;-89
2022/09/09 08:53:30;;;;;;;5.53;3.22;;;;;;;31.57;25.58;101412.41;1633761;84;21090;-90
2022/09/09 08:56:00;;;;;;;5.17;3.95;;;;;;;31.51;25.80;101409.71;1653908;85;21046;-88
2022/09/09 08:58:33;;;;;;;4.67;3.65;;;;;;;31.46;25.53;101404.07;1651054;85;21031;-90
2022/09/09 09:01:29;;;;;;;4.62;3.42;;;;;;;31.45;25.88;101411.91;1610951;88;21016;-91
2022/09/09 09:04:24;;;;;;;6.22;3.83;;;;;;;31.53;25.77;101411.69;1624592;87;21286;-90
2022/09/09 09:07:35;;;;;;;3.90;3.50;;;;;;;31.71;25.32;101407.78;1641664;86;21050;-90
2022/09/09 09:10:14;;;;;;;10.03;4.08;;;;;;;32.00;25.39;101409.70;1658189;85;20964;-91
2022/09/09 09:12:43;;;;;;;4.00;3.60;;;;;;;31.96;24.99;101398.39;1655021;85;21103;-92
2022/09/09 09:15:24;;;;;;;3.92;3.42;;;;;;;31.59;25.27;101395.91;1632310;86;21021;-92
2022/09/09 09:17:51;;;;;;;3.72;3.30;;;;;;;31.31;25.13;101399.70;1661388;85;21020;-90
2022/09/09 09:20:24;;;;;;;6.53;3.83;;;;;;;31.02;25.75;101404.21;1656036;85;21008;-91
2022/09/09 09:22:55;;;;;;;7.35;3.72;;;;;;;30.90;25.89;101404.80;1728759;81;20991;-92
2022/09/09 09:25:28;;;;;;;4.25;3.85;;;;;;;30.76;25.85;101397.69;1730318;81;21001;-92
2022/09/09 09:28:05;;;;;;;;;;;;;;;30.71;26.15;101405.61;1738598;81;20986;-92
2022/09/09 09:30:41;;;;;;;9.53;3.92;;;;;;;30.73;26.00;101404.89;1737157;82;21179;-92
2022/09/09 09:33:23;;;;;;;4.15;3.77;;;;;;;30.60;26.06;101417.05;1712112;82;21424;-92
2022/09/09 09:35:53;;;;;;;8.55;4.40;;;;;;;30.51;25.81;101415.88;1741859;81;20885;-91
2022/09/09 09:38:25;;;;;;;6.40;4.00;;;;;;;30.14;25.90;101411.77;1736854;80;20893;-93
2022/09/09 09:40:57;;;;;;;5.47;3.52;;;;;;;29.82;26.34;101421.41;1725795;82;21140;-91
2022/09/09 09:43:28;;;;;;;5.53;3.70;;;;;;;29.63;26.55;101414.81;1737175;81;21154;-89
2022/09/09 09:45:57;;;;;;;5.72;3.70;;;;;;;29.50;27.30;101415.55;1739627;81;20983;-90
2022/09/09 09:48:27;;;;;;;5.20;3.95;;;;;;;29.58;27.05;101418.64;1730149;81;20900;-92
2022/09/09 09:51:03;;;;;;;5.72;3.95;;;;;;;29.61;26.62;101419.05;1713768;82;20907;-90
2022/09/09 09:53:34;;;;;;;5.58;4.40;;;;;;;29.67;26.56;101416.92;1738082;81;21051;-90
2022/09/09 09:56:06;;;;;;;7.45;3.95;;;;;;;29.78;26.43;101420.14;1704122;82;21580;-90
2022/09/09 09:58:47;;;;;;;5.03;3.62;;;;;;;29.77;26.22;101412.55;1733899;81;20932;-91
2022/09/09 10:01:27;;;;;;;4.50;4.08;;;;;;;29.77;26.31;101419.31;1727781;81;20940;-91
2022/09/09 10:03:57;;;;;;;5.62;4.67;;;;;;;29.93;25.95;101414.91;1723748;81;20976;-88
2022/09/09 10:06:34;;;;;;;7.90;3.58;;;;;;;30.02;25.49;101416.93;1695780;81;21014;-91
2022/09/09 10:09:02;;;;;;;8.58;5.45;;;;;;;30.02;24.96;101422.34;1731235;80;21349;-91
2022/09/09 10:11:34;;;;;;;4.33;3.60;;;;;;;29.93;25.48;101420.84;1743660;81;20944;-95
2022/09/09 10:14:20;;;;;;;5.15;4.35;;;;;;;29.90;25.52;101417.17;1734198;81;21110;-89
2022/09/09 10:17:07;;;;;;;7.05;4.65;;;;;;;29.73;25.26;101412.63;1732498;81;20991;-89
2022/09/09 10:20:55;;;;;;;6.20;4.20;;;;;;;29.47;25.81;101418.14;1854565;77;23181;-90
2022/09/09 10:23:35;;;;;;;6.67;4.53;;;;;;;29.15;25.56;101424.98;1819255;78;21461;-89
2022/09/09 10:26:24;;;;;;;8.23;4.70;;;;;;;28.96;25.98;101425.09;1826398;78;22085;-90
2022/09/09 10:29:00;;;;;;;5.55;4.12;;;;;;;28.70;26.22;101429.70;1822411;78;20903;-89
2022/09/09 10:32:04;;;;;;;9.35;4.78;;;;;;;28.56;26.62;101421.16;1826790;78;20923;-90
2022/09/09 10:34:49;;;;;;;5.75;4.90;;;;;;;28.50;26.51;101418.20;1826488;78;21393;-88
2022/09/09 10:37:42;;;;;;;9.88;4.80;;;;;;;28.26;26.43;101413.13;1826698;78;20907;-92
2022/09/09 10:40:30;;;;;;;6.42;4.25;;;;;;;28.06;26.81;101416.41;1813136;78;21316;-90
2022/09/09 10:43:14;;;;;;;7.17;4.53;;;;;;;28.03;27.24;101416.77;1827236;78;20863;-90
2022/09/09 10:46:11;;;;;;;7.65;4.28;;;;;;;28.17;26.67;101404.80;1825447;78;20892;-88
2022/09/09 10:49:05;;;;;;;10.15;4.03;;;;;;;28.18;26.12;101411.36;1798740;78;21055;-89
2022/09/09 10:52:10;;;;;;;8.30;3.90;;;;;;;27.99;26.18;101407.89;1795483;78;21262;-90
2022/09/09 10:55:09;;;;;;;6.72;4.50;;;;;;;27.70;26.22;101411.75;1775174;78;21440;-88
2022/09/09 10:57:41;;;;;;;5.45;4.15;;;;;;;27.46;26.49;101410.15;1827087;78;21005;-93
2022/09/09 11:00:21;;;;;;;7.90;3.93;;;;;;;27.34;26.96;101403.52;1827035;78;21015;-89
2022/09/09 11:03:04;;;;;;;8.20;5.03;;;;;;;27.34;26.89;101411.60;1826810;78;20884;-89
2022/09/09 11:05:47;;;;;;;8.65;4.60;;;;;;;27.32;26.75;101413.64;1827217;78;20868;-88
2022/09/09 11:08:30;;;;;;;6.92;4.10;;;;;;;27.27;26.58;101405.28;1826529;78;20939;-91
2022/09/09 11:11:05;;;;;;;6.80;4.33;;;;;;;27.12;26.79;101403.86;1826827;78;21392;-90
2022/09/09 11:13:52;;;;;;;6.97;4.40;;;;;;;27.01;27.18;101401.61;1826506;78;20915;-87
2022/09/09 11:16:42;;;;;;;4.42;4.00;;;;;;;27.03;27.56;101399.57;1826113;78;20927;-89
2022/09/09 11:19:38;;;;;;;8.38;4.10;;;;;;;27.09;27.46;101406.41;1822057;78;20860;-89
2022/09/09 11:22:19;;;;;;;6.42;3.52;;;;;;;27.15;27.59;101407.55;1815336;79;21226;-89
2022/09/09 11:24:51;;;;;;;6.35;4.78;;;;;;;27.19;27.57;101406.66;1803009;79;20998;-91
2022/09/09 11:27:40;;;;;;;8.00;4.08;;;;;;;27.22;27.48;101408.53;1815572;79;20927;-89
2022/09/09 11:30:40;;;;;;;10.82;4.53;;;;;;;27.20;27.73;101402.45;1816201;79;21365;-89
2022/09/09 11:33:28;;;;;;;6.92;3.92;;;;;;;27.24;27.80;101403.80;1775019;79;20936;-91
2022/09/09 11:36:31;;;;;;;8.60;4.45;;;;;;;27.29;27.16;101400.03;1815266;79;21124;-88
2022/09/09 11:39:40;;;;;;;7.55;4.47;;;;;;;27.38;27.16;101397.27;1816062;79;20966;-92
2022/09/09 11:42:21;;;;;;;8.33;4.35;;;;;;;27.46;27.04;101390.46;1715980;83;20963;-88
2022/09/09 11:44:47;;;;;;;9.05;5.12;;;;;;;27.59;26.75;101399.23;1715819;83;20995;-90
2022/09/09 11:47:31;;;;;;;5.00;4.08;;;;;;;27.67;26.50;101396.45;1715799;83;21320;-90
2022/09/09 11:50:18;;;;;;;7.20;3.98;;;;;;;27.66;26.73;101395.63;1716233;83;21267;-91
2022/09/09 11:52:48;;;;;;;11.60;4.65;;;;;;;27.70;26.24;101394.23;1714308;81;21089;-90
2022/09/09 11:55:31;;;;;;;5.80;3.70;;;;;;;27.55;26.76;101396.60;1715774;83;21010;-89
2022/09/09 11:58:11;;;;;;;7.53;4.22;;;;;;;27.44;26.98;101396.02;1716316;83;20963;-88